createdAt,value
2022-10-21T00:01:36.380Z,17.42
2022-10-21T00:03:45.340Z,17.88
2022-10-21T00:05:52.925Z,18.05
2022-10-21T00:07:59.849Z,21.95
2022-10-21T00:10:07.852Z,20.75
2022-10-21T00:12:14.677Z,19.73
2022-10-21T00:14:21.447Z,15.27
2022-10-21T00:16:28.220Z,20.83
2022-10-21T00:18:35.862Z,17.73
2022-10-21T00:20:47.039Z,17.40
2022-10-21T00:22:53.793Z,17.17
2022-10-21T00:25:00.580Z,18.88
2022-10-21T00:27:07.694Z,17.55
2022-10-21T00:29:14.590Z,18.52
2022-10-21T00:31:21.769Z,15.60
2022-10-21T00:33:29.564Z,15.80
2022-10-21T00:35:37.617Z,19.08
2022-10-21T00:37:45.976Z,16.58
2022-10-21T00:39:54.077Z,17.45
2022-10-21T00:42:00.849Z,17.17
2022-10-21T00:44:10.078Z,19.55
2022-10-21T00:46:19.512Z,19.38
2022-10-21T00:48:32.276Z,15.15
2022-10-21T00:50:42.829Z,14.25
2022-10-21T00:52:51.452Z,13.95
2022-10-21T00:55:01.463Z,15.05
2022-10-21T00:57:09.251Z,17.38
2022-10-21T00:59:17.247Z,16.73
2022-10-21T01:01:25.141Z,17.85
2022-10-21T01:03:34.277Z,18.13
2022-10-21T01:05:42.369Z,16.15
2022-10-21T01:07:53.248Z,12.35
2022-10-21T01:10:00.072Z,16.13
2022-10-21T01:12:09.553Z,15.00
2022-10-21T01:14:55.500Z,12.65
2022-10-21T01:17:20.383Z,11.13
2022-10-21T01:20:11.351Z,13.43
2022-10-21T01:22:31.691Z,9.30
2022-10-21T01:25:06.374Z,8.90
2022-10-21T01:27:33.051Z,10.52
2022-10-21T01:30:18.894Z,5.63
2022-10-21T01:32:35.031Z,6.38
2022-10-21T01:34:47.696Z,7.30
2022-10-21T01:36:58.048Z,5.72
2022-10-21T01:39:16.134Z,5.82
2022-10-21T01:41:28.128Z,7.35
2022-10-21T01:43:42.227Z,6.68
2022-10-21T01:45:53.298Z,7.78
2022-10-21T01:48:05.648Z,6.45
2022-10-21T01:50:17.082Z,5.35
2022-10-21T01:54:33.953Z,5.70
2022-10-21T01:56:42.315Z,8.45
2022-10-21T01:58:51.134Z,5.32
2022-10-21T02:01:00.337Z,6.05
2022-10-21T02:03:11.794Z,5.88
2022-10-21T02:05:23.169Z,6.97
2022-10-21T02:07:30.040Z,6.45
2022-10-21T02:09:37.078Z,7.75
2022-10-21T02:11:46.801Z,4.90
2022-10-21T02:14:00.249Z,6.90
2022-10-21T02:16:11.572Z,7.50
2022-10-21T02:18:25.311Z,7.87
2022-10-21T02:20:35.001Z,6.18
2022-10-21T02:22:46.335Z,6.60
2022-10-21T02:24:56.736Z,6.40
2022-10-21T02:27:04.021Z,4.95
2022-10-21T02:29:11.149Z,6.43
2022-10-21T02:31:38.556Z,6.90
2022-10-21T02:33:54.900Z,6.20
2022-10-21T02:36:09.817Z,4.95
2022-10-21T02:38:23.870Z,6.10
2022-10-21T02:40:35.340Z,4.82
2022-10-21T02:44:50.113Z,5.25
2022-10-21T02:46:56.831Z,5.00
2022-10-21T02:49:05.344Z,6.68
2022-10-21T02:51:12.887Z,4.53
2022-10-21T02:53:20.069Z,5.95
2022-10-21T02:55:27.352Z,5.22
2022-10-21T02:57:34.124Z,6.22
2022-10-21T02:59:43.253Z,9.38
2022-10-21T03:01:50.126Z,5.70
2022-10-21T03:03:57.561Z,8.00
2022-10-21T03:06:05.975Z,5.25
2022-10-21T03:08:12.900Z,5.50
2022-10-21T03:10:20.185Z,5.90
2022-10-21T03:12:27.107Z,5.60
2022-10-21T03:14:33.939Z,6.15
2022-10-21T03:16:40.803Z,7.85
2022-10-21T03:18:47.938Z,5.43
2022-10-21T03:20:55.014Z,5.53
2022-10-21T03:23:03.785Z,4.65
2022-10-21T03:25:11.479Z,4.50
2022-10-21T03:27:18.342Z,5.72
2022-10-21T03:29:25.127Z,8.15
2022-10-21T03:31:31.999Z,4.55
2022-10-21T03:33:38.884Z,5.25
2022-10-21T03:35:45.696Z,5.15
2022-10-21T03:37:52.925Z,4.63
2022-10-21T03:40:01.341Z,4.28
2022-10-21T03:42:08.221Z,4.85
2022-10-21T03:44:15.192Z,4.63
2022-10-21T03:46:22.169Z,5.38
2022-10-21T03:48:29.400Z,4.95
2022-10-21T03:50:36.122Z,4.20
2022-10-21T03:52:43.002Z,3.95
2022-10-21T03:54:49.817Z,4.15
2022-10-21T03:56:59.049Z,5.18
2022-10-21T03:59:06.385Z,6.05
2022-10-21T04:01:15.794Z,5.63
2022-10-21T04:03:22.860Z,3.58
2022-10-21T04:05:29.772Z,4.03
2022-10-21T04:07:36.547Z,4.22
2022-10-21T04:09:43.829Z,5.53
2022-10-21T04:11:50.909Z,4.07
2022-10-21T04:13:59.628Z,4.00
2022-10-21T04:16:08.802Z,3.17
2022-10-21T04:18:16.036Z,3.83
2022-10-21T04:20:22.961Z,4.78
2022-10-21T04:22:30.450Z,3.22
2022-10-21T04:24:37.221Z,3.60
2022-10-21T04:26:44.609Z,3.40
2022-10-21T04:28:51.380Z,3.55
2022-10-21T04:30:59.877Z,3.22
2022-10-21T04:33:06.563Z,4.38
2022-10-21T04:35:13.696Z,3.45
2022-10-21T04:37:20.517Z,3.95
2022-10-21T04:39:27.237Z,3.70
2022-10-21T04:41:34.060Z,2.70
2022-10-21T04:43:41.344Z,3.20
2022-10-21T04:45:48.116Z,3.70
2022-10-21T04:47:56.734Z,2.92
2022-10-21T04:50:03.504Z,3.78
2022-10-21T04:52:10.380Z,3.53
2022-10-21T04:54:17.252Z,2.95
2022-10-21T04:56:24.128Z,4.18
2022-10-21T04:58:31.005Z,5.53
2022-10-21T05:00:37.885Z,3.38
2022-10-21T05:02:44.601Z,3.25
2022-10-21T05:04:53.213Z,3.20
2022-10-21T05:06:59.983Z,2.92
2022-10-21T05:09:07.589Z,2.60
2022-10-21T05:11:14.456Z,2.40
2022-10-21T05:13:21.323Z,2.47
2022-10-21T05:15:28.402Z,3.47
2022-10-21T05:17:37.493Z,7.57
2022-10-21T05:19:44.511Z,4.38
2022-10-21T05:21:52.917Z,2.25
2022-10-21T05:23:59.793Z,3.38
2022-10-21T05:26:06.665Z,2.97
2022-10-21T05:28:13.592Z,5.50
2022-10-21T05:30:20.518Z,2.75
2022-10-21T05:32:27.481Z,2.90
2022-10-21T05:34:34.215Z,2.30
2022-10-21T05:36:41.039Z,3.00
2022-10-21T05:38:49.500Z,3.10
2022-10-21T05:40:56.220Z,2.47
2022-10-21T05:43:03.040Z,3.22
2022-10-21T05:45:11.249Z,3.05
2022-10-21T05:47:18.176Z,2.80
2022-10-21T05:49:25.055Z,2.60
2022-10-21T05:51:31.872Z,2.58
2022-10-21T05:53:40.846Z,1.90
2022-10-21T05:55:57.246Z,2.25
2022-10-21T05:58:04.273Z,2.95
2022-10-21T06:00:12.223Z,3.10
2022-10-21T06:02:20.122Z,2.28
2022-10-21T06:04:26.996Z,3.22
2022-10-21T06:06:33.871Z,4.47
2022-10-21T06:08:42.069Z,3.55
2022-10-21T06:10:50.885Z,3.20
2022-10-21T06:12:57.727Z,3.13
2022-10-21T06:15:04.752Z,2.17
2022-10-21T06:17:11.571Z,2.50
2022-10-21T06:19:18.495Z,2.60
2022-10-21T06:21:25.320Z,3.33
2022-10-21T06:23:32.551Z,2.72
2022-10-21T06:25:39.487Z,2.30
2022-10-21T06:27:47.940Z,3.42
2022-10-21T06:29:55.839Z,3.00
2022-10-21T06:32:02.713Z,4.72
2022-10-21T06:34:09.686Z,2.65
2022-10-21T06:36:16.515Z,2.38
2022-10-21T06:38:23.748Z,2.17
2022-10-21T06:40:30.569Z,2.85
2022-10-21T06:42:39.698Z,2.85
2022-10-21T06:44:48.159Z,2.65
2022-10-21T06:46:55.289Z,3.92
2022-10-21T06:49:02.041Z,2.60
2022-10-21T06:51:10.778Z,2.63
2022-10-21T06:53:17.805Z,2.75
2022-10-21T06:55:24.836Z,2.53
2022-10-21T06:57:31.758Z,2.80
2022-10-21T06:59:38.583Z,2.30
2022-10-21T07:01:59.852Z,2.78
2022-10-21T07:06:14.309Z,2.38
2022-10-21T07:08:22.543Z,4.15
2022-10-21T07:10:43.471Z,3.38
2022-10-21T07:12:50.189Z,2.45
2022-10-21T07:14:57.425Z,2.47
2022-10-21T07:17:05.942Z,3.60
2022-10-21T07:19:14.351Z,2.70
2022-10-21T07:21:23.067Z,2.17
2022-10-21T07:23:29.889Z,2.30
2022-10-21T07:25:36.662Z,2.28
2022-10-21T07:27:46.161Z,2.47
2022-10-21T07:32:01.685Z,2.33
2022-10-21T07:34:11.685Z,3.08
2022-10-21T07:36:20.402Z,2.67
2022-10-21T07:38:27.076Z,2.28
2022-10-21T07:40:34.663Z,3.90
2022-10-21T07:42:41.485Z,2.92
2022-10-21T07:44:48.617Z,3.47
2022-10-21T07:46:56.413Z,2.38
2022-10-21T07:49:03.234Z,2.30
2022-10-21T07:51:14.360Z,2.67
2022-10-21T07:53:22.669Z,2.08
2022-10-21T07:55:29.644Z,4.53
2022-10-21T07:57:36.875Z,2.50
2022-10-21T07:59:43.806Z,2.10
2022-10-21T08:01:51.198Z,3.38
2022-10-21T08:03:59.239Z,2.92
2022-10-21T08:06:06.884Z,3.47
2022-10-21T08:08:15.406Z,2.85
2022-10-21T08:10:23.244Z,2.47
2022-10-21T08:12:30.068Z,3.63
2022-10-21T08:14:37.810Z,2.92
2022-10-21T08:16:45.147Z,2.30
2022-10-21T08:18:52.481Z,2.45
2022-10-21T08:21:01.968Z,3.13
2022-10-21T08:23:08.944Z,4.28
2022-10-21T08:25:18.178Z,3.08
2022-10-21T08:27:25.303Z,2.58
2022-10-21T08:29:34.276Z,2.45
2022-10-21T08:31:43.700Z,2.83
2022-10-21T08:33:51.715Z,3.50
2022-10-21T08:35:58.592Z,4.60
2022-10-21T08:40:19.565Z,2.65
2022-10-21T08:42:27.863Z,2.85
2022-10-21T08:44:42.008Z,2.78
2022-10-21T08:46:54.844Z,2.38
2022-10-21T08:49:08.658Z,3.55
2022-10-21T08:51:26.032Z,2.75
2022-10-21T08:53:38.537Z,2.17
2022-10-21T08:55:49.046Z,3.75
2022-10-21T08:57:56.431Z,2.93
2022-10-21T09:00:03.255Z,2.70
2022-10-21T09:02:27.280Z,2.88
2022-10-21T09:04:46.289Z,2.50
2022-10-21T09:06:58.185Z,3.70
2022-10-21T09:09:18.716Z,4.07
2022-10-21T09:11:36.251Z,3.42
2022-10-21T09:13:59.049Z,3.80
2022-10-21T09:16:13.451Z,4.07
2022-10-21T09:18:36.656Z,3.97
2022-10-21T09:21:00.541Z,3.83
2022-10-21T09:23:27.279Z,3.35
2022-10-21T09:25:37.369Z,4.40
2022-10-21T09:27:55.396Z,2.90
2022-10-21T09:30:05.723Z,2.50
2022-10-21T09:32:20.211Z,4.03
2022-10-21T09:34:40.359Z,2.47
2022-10-21T09:36:49.937Z,2.95
2022-10-21T09:39:01.453Z,2.55
2022-10-21T09:41:10.507Z,2.85
2022-10-21T09:43:27.917Z,2.90
2022-10-21T09:45:37.353Z,3.75
2022-10-21T09:47:44.688Z,4.43
2022-10-21T09:50:06.785Z,3.53
2022-10-21T09:52:16.407Z,2.70
2022-10-21T09:54:26.506Z,2.90
2022-10-21T09:56:39.335Z,2.78
2022-10-21T09:58:59.661Z,2.67
2022-10-21T10:01:08.379Z,2.50
2022-10-21T10:03:15.416Z,2.95
2022-10-21T10:05:39.439Z,2.80
2022-10-21T10:07:46.411Z,3.25
2022-10-21T10:09:53.183Z,3.15
2022-10-21T10:12:03.949Z,2.88
2022-10-21T10:14:30.738Z,3.53
2022-10-21T10:16:37.817Z,4.43
2022-10-21T10:18:45.359Z,2.90
2022-10-21T10:21:08.719Z,3.28
2022-10-21T10:23:22.044Z,2.40
2022-10-21T10:25:36.804Z,3.65
2022-10-21T10:27:51.357Z,4.10
2022-10-21T10:30:01.630Z,6.85
2022-10-21T10:32:17.599Z,10.93
2022-10-21T10:34:25.807Z,10.50
2022-10-21T10:36:37.412Z,11.50
2022-10-21T10:38:47.491Z,10.43
2022-10-21T10:40:57.836Z,13.63
2022-10-21T10:43:10.713Z,13.52
2022-10-21T10:47:32.194Z,16.58
2022-10-21T10:49:41.832Z,25.98
2022-10-21T10:51:51.370Z,29.23
2022-10-21T10:54:20.364Z,27.40
2022-10-21T10:56:32.459Z,21.10
2022-10-21T10:58:43.327Z,16.52
2022-10-21T11:00:55.239Z,17.73
2022-10-21T11:03:07.319Z,16.27
2022-10-21T11:05:26.684Z,15.55
2022-10-21T11:07:40.868Z,15.02
2022-10-21T11:09:48.624Z,15.13
2022-10-21T11:11:57.391Z,13.18
2022-10-21T11:14:04.436Z,13.50
2022-10-21T11:16:29.477Z,11.95
2022-10-21T11:18:40.800Z,12.85
2022-10-21T11:20:55.459Z,16.85
2022-10-21T11:23:17.286Z,13.25
2022-10-21T11:25:26.819Z,12.73
2022-10-21T11:27:50.590Z,16.13
2022-10-21T11:30:05.928Z,33.17
2022-10-21T11:32:27.891Z,27.00
2022-10-21T11:36:57.209Z,35.25
2022-10-21T11:39:32.034Z,23.38
2022-10-21T11:41:43.005Z,26.00
2022-10-21T11:43:57.710Z,23.40
2022-10-21T11:46:10.579Z,28.77
2022-10-21T11:48:29.740Z,29.17
2022-10-21T11:50:43.783Z,27.48
2022-10-21T11:53:15.335Z,27.88
2022-10-21T11:55:39.772Z,30.00
2022-10-21T11:57:56.833Z,30.73
2022-10-21T12:00:13.713Z,31.20
2022-10-21T12:02:24.399Z,34.83
2022-10-21T12:04:44.133Z,32.08
2022-10-21T12:06:59.557Z,29.85
2022-10-21T12:09:09.095Z,29.73
2022-10-21T12:11:20.680Z,30.27
2022-10-21T12:13:32.210Z,33.70
2022-10-21T12:15:44.109Z,36.17
2022-10-21T12:17:52.980Z,29.15
2022-10-21T12:20:03.640Z,27.88
2022-10-21T12:22:13.852Z,31.30
2022-10-21T12:24:31.315Z,26.77
2022-10-21T12:26:43.839Z,27.95
2022-10-21T12:28:58.685Z,26.77
2022-10-21T12:31:14.311Z,28.50
2022-10-21T12:33:28.816Z,31.95
2022-10-21T12:35:54.225Z,27.23
2022-10-21T12:38:25.789Z,29.23
2022-10-21T12:40:41.318Z,28.95
2022-10-21T12:42:51.321Z,26.90
2022-10-21T12:44:58.180Z,26.30
2022-10-21T12:47:07.817Z,24.23
2022-10-21T12:49:34.153Z,29.30
2022-10-21T12:51:50.505Z,27.23
2022-10-21T12:54:01.933Z,29.30
2022-10-21T12:56:10.281Z,30.30
2022-10-21T12:58:35.235Z,32.63
2022-10-21T13:00:57.172Z,35.40
2022-10-21T13:03:05.469Z,28.92
2022-10-21T13:05:12.865Z,27.83
2022-10-21T13:08:08.145Z,26.63
2022-10-21T13:10:35.397Z,25.50
2022-10-21T13:12:42.248Z,35.00
2022-10-21T13:14:51.071Z,29.15
2022-10-21T13:17:16.662Z,27.02
2022-10-21T13:19:38.914Z,29.73
2022-10-21T13:21:48.237Z,28.20
2022-10-21T13:23:59.370Z,32.15
2022-10-21T13:26:28.046Z,31.08
2022-10-21T13:28:35.131Z,27.48
2022-10-21T13:30:44.604Z,30.63
2022-10-21T13:33:04.150Z,35.63
2022-10-21T13:35:32.884Z,33.28
2022-10-21T13:37:42.429Z,33.50
2022-10-21T13:39:54.862Z,30.92
2022-10-21T13:42:05.935Z,33.08
2022-10-21T13:44:28.835Z,33.88
2022-10-21T13:46:43.270Z,33.95
2022-10-21T13:48:51.646Z,30.95
2022-10-21T13:50:58.726Z,33.45
2022-10-21T13:53:24.545Z,31.80
2022-10-21T13:55:33.517Z,32.92
2022-10-21T13:57:40.551Z,33.22
2022-10-21T13:59:47.931Z,30.70
2022-10-21T14:01:56.495Z,32.05
2022-10-21T14:04:17.604Z,31.02
2022-10-21T14:06:33.139Z,28.60
2022-10-21T14:08:45.879Z,24.25
2022-10-21T14:10:54.562Z,27.20
2022-10-21T14:13:03.175Z,26.80
2022-10-21T14:15:19.114Z,27.95
2022-10-21T14:17:28.496Z,25.40
2022-10-21T14:19:37.724Z,24.08
2022-10-21T14:21:49.104Z,22.80
2022-10-21T14:23:56.392Z,23.38
2022-10-21T14:26:10.328Z,23.20
2022-10-21T14:28:20.786Z,20.85
2022-10-21T14:30:31.091Z,18.13
2022-10-21T14:32:38.759Z,18.10
2022-10-21T14:35:01.814Z,15.75
2022-10-21T14:37:21.465Z,15.93
2022-10-21T14:39:28.235Z,15.18
2022-10-21T14:41:39.977Z,16.02
2022-10-21T14:43:48.330Z,19.17
2022-10-21T14:45:56.384Z,15.48
2022-10-21T14:48:11.450Z,13.93
2022-10-21T14:50:23.499Z,15.60
2022-10-21T14:52:36.663Z,11.75
2022-10-21T14:54:49.126Z,12.25
2022-10-21T14:56:58.966Z,12.73
2022-10-21T14:59:19.116Z,12.55
2022-10-21T15:01:26.234Z,11.57
2022-10-21T15:03:44.989Z,12.95
2022-10-21T15:05:51.812Z,11.85
2022-10-21T15:08:27.461Z,13.48
2022-10-21T15:10:34.437Z,14.27
2022-10-21T15:12:46.535Z,12.73
2022-10-21T15:14:53.356Z,11.43
2022-10-21T15:17:02.981Z,9.30
2022-10-21T15:19:19.187Z,10.55
2022-10-21T15:21:39.272Z,10.77
2022-10-21T15:23:52.968Z,13.30
2022-10-21T15:26:04.646Z,10.13
2022-10-21T15:28:19.863Z,10.85
2022-10-21T15:30:27.303Z,12.25
2022-10-21T15:32:33.972Z,9.45
2022-10-21T15:34:41.317Z,8.82
2022-10-21T15:36:48.144Z,10.50
2022-10-21T15:38:56.418Z,10.77
2022-10-21T15:41:03.215Z,10.35
2022-10-21T15:43:12.543Z,8.75
2022-10-21T15:45:23.228Z,10.02
2022-10-21T15:47:30.033Z,9.10
2022-10-21T15:49:39.052Z,10.18
2022-10-21T15:51:46.336Z,11.57
2022-10-21T15:53:53.163Z,8.32
2022-10-21T15:56:00.047Z,8.20
2022-10-21T15:58:07.062Z,8.90
2022-10-21T16:00:21.925Z,9.60
2022-10-21T16:02:29.003Z,9.52
2022-10-21T16:04:35.828Z,8.25
2022-10-21T16:06:46.951Z,9.60
2022-10-21T16:08:54.486Z,8.50
2022-10-21T16:11:01.499Z,11.45
2022-10-21T16:13:08.392Z,8.73
2022-10-21T16:15:15.996Z,8.40
2022-10-21T16:17:25.267Z,11.05
2022-10-21T16:19:32.293Z,7.55
2022-10-21T16:21:39.425Z,8.90
2022-10-21T16:23:46.246Z,13.93
2022-10-21T16:25:53.891Z,8.15
2022-10-21T16:28:00.664Z,8.13
2022-10-21T16:30:20.848Z,7.80
2022-10-21T16:32:29.477Z,8.40
2022-10-21T16:34:36.797Z,11.45
2022-10-21T16:36:43.570Z,13.45
2022-10-21T16:38:51.777Z,12.95
2022-10-21T16:40:58.548Z,9.82
2022-10-21T16:43:05.933Z,10.40
2022-10-21T16:45:13.372Z,9.65
2022-10-21T16:47:23.533Z,12.25
2022-10-21T16:49:32.143Z,8.77
2022-10-21T16:51:39.525Z,11.05
2022-10-21T16:53:46.686Z,10.50
2022-10-21T16:55:53.940Z,9.93
2022-10-21T16:58:01.538Z,9.57
2022-10-21T17:00:09.156Z,10.65
2022-10-21T17:02:20.348Z,10.25
2022-10-21T17:04:27.121Z,8.65
2022-10-21T17:06:35.887Z,11.48
2022-10-21T17:08:42.705Z,9.27
2022-10-21T17:10:49.895Z,9.15
2022-10-21T17:12:59.739Z,9.05
2022-10-21T17:15:07.029Z,9.65
2022-10-21T17:17:13.845Z,9.18
2022-10-21T17:19:21.234Z,10.00
2022-10-21T17:21:29.795Z,10.18
2022-10-21T17:25:50.252Z,11.45
2022-10-21T17:27:57.704Z,11.90
2022-10-21T17:30:04.464Z,10.95
2022-10-21T17:32:13.392Z,9.75
2022-10-21T17:34:28.861Z,10.27
2022-10-21T17:36:35.784Z,9.75
2022-10-21T17:38:44.657Z,10.65
2022-10-21T17:40:51.562Z,9.38
2022-10-21T17:42:59.377Z,8.73
2022-10-21T17:45:06.269Z,10.90
2022-10-21T17:47:14.879Z,10.85
2022-10-21T17:49:22.150Z,9.85
2022-10-21T17:51:29.435Z,11.40
2022-10-21T17:53:36.258Z,10.95
2022-10-21T17:55:45.284Z,9.95
2022-10-21T17:57:52.064Z,10.90
2022-10-21T17:59:59.111Z,8.98
2022-10-21T18:02:05.909Z,9.82
2022-10-21T18:04:14.163Z,11.05
2022-10-21T18:06:21.088Z,10.30
2022-10-21T18:08:28.015Z,7.57
2022-10-21T18:10:34.736Z,9.73
2022-10-21T18:12:43.452Z,8.57
2022-10-21T18:14:50.389Z,8.10
2022-10-21T18:16:57.253Z,8.57
2022-10-21T18:19:04.090Z,8.23
2022-10-21T18:21:13.766Z,9.85
2022-10-21T18:23:20.549Z,9.18
2022-10-21T18:25:27.413Z,7.57
2022-10-21T18:27:34.218Z,9.27
2022-10-21T18:29:43.211Z,9.20
2022-10-21T18:31:49.981Z,8.52
2022-10-21T18:33:58.701Z,8.35
2022-10-21T18:36:11.668Z,8.57
2022-10-21T18:38:18.696Z,12.45
2022-10-21T18:40:25.415Z,8.70
2022-10-21T18:42:32.452Z,9.55
2022-10-21T18:44:39.278Z,10.15
2022-10-21T18:46:50.176Z,10.63
2022-10-21T18:48:59.433Z,8.45
2022-10-21T18:51:09.723Z,8.00
2022-10-21T18:53:16.645Z,9.60
2022-10-21T18:55:23.572Z,9.40
2022-10-21T18:57:30.755Z,8.85
2022-10-21T18:59:37.577Z,7.65
2022-10-21T19:01:44.433Z,6.63
2022-10-21T19:03:55.013Z,9.38
2022-10-21T19:06:16.847Z,8.13
2022-10-21T19:08:23.711Z,6.80
2022-10-21T19:10:30.590Z,7.18
2022-10-21T19:12:37.717Z,8.45
2022-10-21T19:14:44.662Z,9.23
2022-10-21T19:16:53.265Z,9.35
2022-10-21T19:19:01.820Z,11.00
2022-10-21T19:21:09.175Z,8.48
2022-10-21T19:23:15.929Z,8.50
2022-10-21T19:25:23.019Z,9.18
2022-10-21T19:27:29.830Z,8.55
2022-10-21T19:29:36.927Z,8.30
2022-10-21T19:31:44.103Z,7.85
2022-10-21T19:33:51.481Z,9.68
2022-10-21T19:36:02.971Z,7.40
2022-10-21T19:38:11.629Z,9.52
2022-10-21T19:40:22.497Z,7.40
2022-10-21T19:42:29.727Z,8.02
2022-10-21T19:44:36.397Z,8.27
2022-10-21T19:46:43.682Z,7.88
2022-10-21T19:48:50.967Z,8.90
2022-10-21T19:51:00.771Z,8.38
2022-10-21T19:53:07.535Z,8.63
2022-10-21T19:55:14.509Z,8.27
2022-10-21T19:57:21.392Z,7.93
2022-10-21T19:59:28.195Z,8.57
2022-10-21T20:01:36.476Z,14.07
2022-10-21T20:03:45.128Z,13.63
2022-10-21T20:05:52.208Z,9.88
2022-10-21T20:08:00.672Z,8.95
2022-10-21T20:10:08.730Z,10.00
2022-10-21T20:12:15.649Z,12.20
2022-10-21T20:14:22.674Z,11.10
2022-10-21T20:16:31.186Z,10.02
2022-10-21T20:18:38.321Z,10.18
2022-10-21T20:20:45.550Z,10.65
2022-10-21T20:22:52.439Z,9.68
2022-10-21T20:25:00.990Z,10.43
2022-10-21T20:27:07.917Z,12.90
2022-10-21T20:29:16.473Z,12.45
2022-10-21T20:31:23.765Z,12.30
2022-10-21T20:33:30.843Z,13.27
2022-10-21T20:35:43.659Z,14.10
2022-10-21T20:37:50.532Z,13.93
2022-10-21T20:39:57.355Z,13.07
2022-10-21T20:42:05.919Z,14.98
2022-10-21T20:44:17.147Z,11.98
2022-10-21T20:46:26.075Z,13.45
2022-10-21T20:48:33.507Z,16.35
2022-10-21T20:50:40.277Z,12.63
2022-10-21T20:52:47.561Z,11.93
2022-10-21T20:54:57.200Z,13.07
2022-10-21T20:57:06.684Z,13.35
2022-10-21T20:59:16.177Z,12.90
2022-10-21T21:01:26.282Z,13.43
2022-10-21T21:03:33.156Z,13.07
2022-10-21T21:05:40.073Z,12.35
2022-10-21T21:07:46.945Z,14.18
2022-10-21T21:10:09.197Z,13.23
2022-10-21T21:12:17.900Z,11.75
2022-10-21T21:14:24.988Z,11.82
2022-10-21T21:16:31.956Z,11.77
2022-10-21T21:18:39.545Z,12.27
2022-10-21T21:20:46.524Z,10.88
2022-10-21T21:22:53.753Z,12.85
2022-10-21T21:25:00.886Z,12.48
2022-10-21T21:27:07.760Z,13.80
2022-10-21T21:29:17.551Z,10.43
2022-10-21T21:31:26.220Z,14.52
2022-10-21T21:33:33.301Z,10.55
2022-10-21T21:35:40.072Z,11.88
2022-10-21T21:37:47.150Z,12.40
2022-10-21T21:39:54.024Z,9.98
2022-10-21T21:42:01.271Z,13.35
2022-10-21T21:44:08.754Z,13.38
2022-10-21T21:46:23.606Z,13.98
2022-10-21T21:48:30.670Z,11.52
2022-10-21T21:50:37.613Z,11.88
2022-10-21T21:52:44.888Z,14.68
2022-10-21T21:54:55.457Z,13.48
2022-10-21T21:57:28.659Z,12.07
2022-10-21T21:59:29.325Z,12.85
2022-10-21T22:01:37.929Z,13.45
2022-10-21T22:03:45.020Z,14.45
2022-10-21T22:05:51.845Z,15.18
2022-10-21T22:07:58.669Z,15.60
2022-10-21T22:10:05.798Z,15.75
2022-10-21T22:12:14.478Z,16.48
2022-10-21T22:14:21.850Z,15.25
2022-10-21T22:16:31.058Z,14.05
2022-10-21T22:18:39.592Z,15.13
2022-10-21T22:20:46.363Z,11.80
2022-10-21T22:22:53.681Z,12.10
2022-10-21T22:25:00.523Z,16.92
2022-10-21T22:27:07.859Z,13.68
2022-10-21T22:29:14.682Z,12.65
2022-10-21T22:31:27.423Z,12.90
2022-10-21T22:33:40.175Z,13.30
2022-10-21T22:35:47.028Z,11.65
2022-10-21T22:37:53.852Z,11.68
2022-10-21T22:40:01.196Z,16.05
2022-10-21T22:42:08.174Z,16.30
2022-10-21T22:44:15.602Z,11.25
2022-10-21T22:46:33.242Z,14.23
2022-10-21T22:48:42.692Z,11.32
2022-10-21T22:50:49.850Z,12.43
2022-10-21T22:52:56.704Z,13.52
2022-10-21T22:55:03.801Z,12.63
2022-10-21T22:57:10.570Z,13.95
2022-10-21T22:59:17.700Z,13.65
2022-10-21T23:01:25.036Z,13.80
2022-10-21T23:03:32.228Z,12.70
2022-10-21T23:05:40.739Z,15.45
2022-10-21T23:07:47.912Z,13.52
2022-10-21T23:09:56.856Z,14.80
2022-10-21T23:12:04.067Z,12.85
2022-10-21T23:14:11.608Z,11.95
2022-10-21T23:16:18.758Z,15.80
2022-10-21T23:18:25.510Z,11.60
2022-10-21T23:20:32.692Z,13.88
2022-10-21T23:22:41.369Z,14.68
2022-10-21T23:24:48.693Z,12.73
2022-10-21T23:26:59.045Z,12.13
2022-10-21T23:29:08.548Z,12.82
2022-10-21T23:31:15.256Z,12.00
2022-10-21T23:33:22.283Z,14.15
2022-10-21T23:35:29.064Z,14.38
2022-10-21T23:37:36.083Z,14.65
2022-10-21T23:39:44.648Z,13.00
2022-10-21T23:41:51.943Z,14.52
2022-10-21T23:43:58.805Z,15.45
2022-10-21T23:46:07.831Z,11.65
2022-10-21T23:48:14.770Z,13.45
2022-10-21T23:50:22.040Z,12.55
2022-10-21T23:52:29.018Z,10.82
2022-10-21T23:54:35.890Z,12.20
2022-10-21T23:56:44.358Z,13.27
2022-10-21T23:58:51.279Z,14.13
